Waskesiu Lake, Canada
Current Conditions -  °F | °C
As of 8:00 AM on Saturday 25 Oct 2014 (Local Time) from CYPA Reporting Station
Few Clouds Few Clouds  
Wind Chill: 25°   Ceiling: Unl
Heat Index: 32°   Visibility: 15mi
Dew Point: 27°   Wind: 8mph
Humidity: 80%   Direction: 280°W
Pressure: 29.98"   Gusts: NA
Location:  53.92°N, 106.08°W
Report Text: CYPA 251400Z 28007KT 15SM FEW120 FEW250 00/M03 A2998 RMK AC1CI1 AC TR CI TR SLP172
Loading
Personal Weather Stations






























Interactive Weather Map
Tropical Storm Tracking
New forecast layout! Learn more

10-Day Weather Forecast

Advertisements
Track Severe Weather on mobile